Time;durP1;ratioP1;P1;durP2;ratioP2;P2;SDS_P1;SDS_P2;PMS_P1;PMS_P2;Temp;Humidity;BMP_temperature;BMP_pressure;BME280_temperature;BME280_humidity;BME280_pressure;Samples;Min_cycle;Max_cycle;Signal;HPM_P1;HPM_P2
2022/09/25 00:02:03;;;;;;;0.97;0.83;;;;;;;13.14;56.06;99452.41;5069960;28;20238;-61
2022/09/25 00:04:31;;;;;;;1.83;0.93;;;;;;;13.13;55.90;99450.81;5069920;28;20225;-61
2022/09/25 00:06:57;;;;;;;1.23;0.90;;;;;;;13.18;56.44;99448.69;5069561;28;20194;-61
2022/09/25 00:09:24;;;;;;;0.87;0.80;;;;;;;13.29;55.76;99446.16;5069904;28;20203;-61
2022/09/25 00:11:51;;;;;;;1.27;1.00;;;;;;;13.24;56.67;99448.22;5069526;28;20543;-61
2022/09/25 00:14:19;;;;;;;0.93;0.83;;;;;;;13.15;56.51;99438.66;5069658;28;20229;-61
2022/09/25 00:16:46;;;;;;;1.90;0.77;;;;;;;13.12;56.58;99433.78;5069784;28;20196;-61
2022/09/25 00:22:05;;;;;;;1.87;1.07;;;;;;;12.89;56.87;99431.22;5069375;28;20229;-61
2022/09/25 00:24:32;;;;;;;1.73;0.73;;;;;;;12.88;57.25;99427.00;5069584;28;20199;-61
2022/09/25 00:27:00;;;;;;;2.33;1.23;;;;;;;12.94;57.35;99424.91;5069364;28;20198;-61
2022/09/25 00:29:29;;;;;;;0.93;0.83;;;;;;;12.88;57.23;99421.88;5069559;28;20205;-61
2022/09/25 00:31:57;;;;;;;1.13;0.83;;;;;;;12.85;57.03;99421.28;5069574;28;20633;-61
2022/09/25 00:34:24;;;;;;;1.00;0.80;;;;;;;12.83;57.15;99413.72;5069658;28;20207;-61
2022/09/25 00:36:50;;;;;;;1.10;1.00;;;;;;;12.82;57.07;99411.25;5069397;28;20677;-61
2022/09/25 00:39:17;;;;;;;1.07;1.00;;;;;;;12.76;56.86;99412.53;5069329;28;20234;-61
2022/09/25 00:41:44;;;;;;;0.93;0.90;;;;;;;12.72;57.29;99411.16;5069192;28;20222;-61
2022/09/25 00:44:58;;;;;;;0.80;0.73;;;;;;;12.69;57.77;99403.69;5069245;28;20218;-61
2022/09/25 00:47:32;;;;;;;3.20;0.83;;;;;;;12.74;57.23;99409.31;5054648;28;20214;-61
2022/09/25 00:50:02;;;;;;;1.27;0.83;;;;;;;12.76;56.95;99402.28;5069737;28;20198;-60
2022/09/25 00:52:30;;;;;;;0.60;0.60;;;;;;;12.78;57.10;99400.41;5069427;28;20230;-61
2022/09/25 00:55:02;;;;;;;1.03;0.70;;;;;;;12.77;56.85;99397.97;5069552;28;20199;-61
2022/09/25 00:57:32;;;;;;;0.97;0.80;;;;;;;12.83;57.07;99393.19;5070937;28;20223;-61
2022/09/25 01:00:04;;;;;;;1.50;1.03;;;;;;;12.91;56.91;99396.00;5073324;28;20458;-61
2022/09/25 01:02:37;;;;;;;0.67;0.57;;;;;;;12.87;55.87;99381.75;5073142;28;20677;-61
2022/09/25 01:05:07;;;;;;;1.10;1.00;;;;;;;12.83;56.19;99388.06;5073172;28;20675;-61
2022/09/25 01:07:37;;;;;;;0.50;0.47;;;;;;;12.87;56.46;99380.94;5073140;28;20216;-61
2022/09/25 01:10:07;;;;;;;0.50;0.50;;;;;;;12.91;56.16;99378.03;5073110;28;20383;-60
2022/09/25 01:12:35;;;;;;;0.70;0.50;;;;;;;12.91;56.00;99382.31;5072777;28;20710;-61
2022/09/25 01:15:02;;;;;;;0.50;0.50;;;;;;;12.95;55.95;99382.94;5072870;28;20582;-61
2022/09/25 01:17:38;;;;;;;0.50;0.50;;;;;;;12.90;55.83;99378.94;5073094;28;20237;-61
2022/09/25 01:20:16;;;;;;;0.53;0.53;;;;;;;12.97;55.74;99383.59;5072769;28;20206;-61
2022/09/25 01:23:02;;;;;;;1.17;0.87;;;;;;;12.90;55.99;99383.25;5072867;28;20428;-61
2022/09/25 01:25:39;;;;;;;0.73;0.73;;;;;;;12.87;55.82;99388.63;5072744;28;20198;-61
2022/09/25 01:28:28;;;;;;;0.50;0.50;;;;;;;12.82;56.14;99391.53;5072893;28;20218;-61
2022/09/25 01:31:04;;;;;;;0.50;0.50;;;;;;;12.79;56.79;99386.66;5072433;28;20194;-61
2022/09/25 01:33:36;;;;;;;0.40;0.40;;;;;;;12.70;56.62;99395.06;5072855;28;20686;-61
2022/09/25 01:36:10;;;;;;;0.43;0.43;;;;;;;12.69;56.88;99396.00;5072716;28;20191;-60
2022/09/25 01:38:43;;;;;;;1.60;0.80;;;;;;;12.67;57.34;99390.97;5072731;28;20222;-61
2022/09/25 01:41:17;;;;;;;0.50;0.50;;;;;;;12.64;56.91;99395.53;5072327;28;20225;-61
2022/09/25 01:43:51;;;;;;;1.63;0.60;;;;;;;12.64;56.93;99385.25;5072333;28;20246;-61
2022/09/25 01:46:24;;;;;;;0.80;0.60;;;;;;;12.61;57.61;99390.63;5072339;28;20199;-61
2022/09/25 01:48:55;;;;;;;0.50;0.50;;;;;;;12.58;57.72;99389.09;5072611;28;20272;-61
2022/09/25 01:51:28;;;;;;;0.60;0.60;;;;;;;12.59;57.89;99384.78;5072087;28;20666;-61
2022/09/25 01:53:59;;;;;;;0.93;0.83;;;;;;;12.62;57.98;99387.13;5072332;28;20231;-61
2022/09/25 01:56:31;;;;;;;0.53;0.53;;;;;;;12.58;57.65;99394.22;5072316;28;20203;-61
2022/09/25 01:59:04;;;;;;;1.53;0.70;;;;;;;12.61;57.49;99394.00;5072071;28;20222;-61
2022/09/25 02:01:37;;;;;;;1.17;0.93;;;;;;;12.58;58.25;99396.00;5071921;28;20198;-61
2022/09/25 02:04:09;;;;;;;0.67;0.67;;;;;;;12.51;58.25;99387.94;5072258;28;20262;-61
2022/09/25 02:06:39;;;;;;;0.47;0.47;;;;;;;12.44;59.26;99386.75;5072004;28;20195;-61
2022/09/25 02:09:10;;;;;;;0.70;0.70;;;;;;;12.36;60.47;99384.78;5070622;28;20218;-61
2022/09/25 02:11:41;;;;;;;0.50;0.50;;;;;;;12.30;60.78;99384.41;5071810;28;20199;-61
2022/09/25 02:14:14;;;;;;;0.50;0.50;;;;;;;12.20;60.68;99384.28;5072053;28;20218;-61
2022/09/25 02:16:43;;;;;;;1.10;1.03;;;;;;;12.11;61.15;99385.78;5071664;28;20769;-61
2022/09/25 02:22:06;;;;;;;1.33;0.80;;;;;;;11.82;62.33;99387.88;5072116;28;20329;-61
2022/09/25 02:24:39;;;;;;;0.70;0.70;;;;;;;11.70;62.93;99381.09;5071809;28;20603;-61
2022/09/25 02:27:06;;;;;;;0.50;0.50;;;;;;;11.59;64.02;99383.59;5071285;28;20199;-61
2022/09/25 02:29:33;;;;;;;0.93;0.57;;;;;;;11.54;64.92;99387.28;5071562;28;20199;-61
2022/09/25 02:32:05;;;;;;;0.50;0.50;;;;;;;11.44;65.37;99395.75;5071474;28;20214;-60
2022/09/25 02:34:33;;;;;;;1.23;0.77;;;;;;;11.27;66.10;99394.38;5071690;28;20195;-61
2022/09/25 02:37:00;;;;;;;0.60;0.53;;;;;;;11.18;65.63;99395.84;5071251;28;20198;-61
2022/09/25 02:39:30;;;;;;;0.40;0.40;;;;;;;11.16;66.16;99394.31;5071571;28;20206;-61
2022/09/25 02:42:26;;;;;;;0.50;0.50;;;;;;;11.13;66.70;99391.97;5071640;28;20198;-61
2022/09/25 02:45:08;;;;;;;0.40;0.40;;;;;;;11.08;67.04;99400.78;5071421;28;20210;-61
2022/09/25 02:47:44;;;;;;;0.33;0.33;;;;;;;11.07;67.39;99398.31;5071345;28;20222;-61
2022/09/25 02:50:19;;;;;;;0.60;0.60;;;;;;;11.02;66.71;99396.06;5071151;28;20709;-61
2022/09/25 02:52:52;;;;;;;0.50;0.50;;;;;;;10.92;65.38;99384.84;5071298;28;20229;-61
2022/09/25 02:55:26;;;;;;;0.50;0.43;;;;;;;10.86;66.32;99398.06;5071358;28;20201;-61
2022/09/25 02:57:58;;;;;;;0.73;0.73;;;;;;;10.80;66.64;99401.84;5071011;28;20717;-60
2022/09/25 03:00:25;;;;;;;0.17;0.17;;;;;;;10.78;67.10;99397.75;5071043;28;20606;-60
2022/09/25 03:02:58;;;;;;;0.37;0.33;;;;;;;10.75;67.25;99397.97;5070879;28;20629;-60
2022/09/25 03:05:26;;;;;;;0.60;0.60;;;;;;;10.73;67.26;99402.38;5071050;28;20206;-60
2022/09/25 03:10:38;;;;;;;0.30;0.30;;;;;;;10.67;67.44;99395.13;5070959;28;20206;-60
2022/09/25 03:13:18;;;;;;;0.60;0.60;;;;;;;10.60;67.67;99395.53;5070645;28;20218;-60
2022/09/25 03:15:50;;;;;;;0.57;0.57;;;;;;;10.50;67.66;99404.75;5070624;28;20213;-60
2022/09/25 03:18:19;;;;;;;0.40;0.40;;;;;;;10.68;66.77;99415.47;5070864;28;20246;-60
2022/09/25 03:20:46;;;;;;;0.33;0.33;;;;;;;10.62;66.83;99409.03;5070321;28;20199;-60
2022/09/25 03:23:12;;;;;;;0.70;0.53;;;;;;;10.54;67.66;99403.63;5070342;28;20265;-60
2022/09/25 03:25:39;;;;;;;1.17;0.70;;;;;;;10.52;68.40;99408.00;5070463;28;20203;-60
2022/09/25 03:28:10;;;;;;;0.50;0.50;;;;;;;10.47;68.83;99410.06;5070328;28;20223;-60
2022/09/25 03:30:39;;;;;;;0.83;0.73;;;;;;;10.47;69.64;99410.06;5070251;28;20198;-60
2022/09/25 03:33:09;;;;;;;0.40;0.40;;;;;;;10.41;69.72;99411.28;5070439;28;20268;-60
2022/09/25 03:35:38;;;;;;;0.40;0.40;;;;;;;10.46;70.35;99413.53;5070251;28;20256;-60
2022/09/25 03:38:07;;;;;;;0.37;0.37;;;;;;;10.38;70.81;99410.66;5070380;28;20222;-60
2022/09/25 03:40:34;;;;;;;1.07;0.90;;;;;;;10.35;70.05;99405.75;5070130;28;20560;-60
2022/09/25 03:43:01;;;;;;;0.63;0.60;;;;;;;10.35;70.09;99408.31;5070333;28;20230;-60
2022/09/25 03:45:35;;;;;;;0.27;0.27;;;;;;;10.35;69.89;99405.75;5070072;28;20203;-60
2022/09/25 03:48:02;;;;;;;0.20;0.20;;;;;;;10.32;70.09;99404.22;5069941;28;20792;-60
2022/09/25 03:50:29;;;;;;;0.60;0.60;;;;;;;10.34;70.28;99406.69;5070275;28;20198;-60
2022/09/25 03:52:58;;;;;;;0.80;0.70;;;;;;;10.41;69.60;99410.47;5069962;28;20236;-60
2022/09/25 03:55:25;;;;;;;0.37;0.37;;;;;;;10.37;69.57;99398.81;5069850;28;20210;-60
2022/09/25 03:57:52;;;;;;;0.30;0.30;;;;;;;10.36;69.57;99403.09;5070089;28;20696;-60
2022/09/25 04:00:19;;;;;;;0.50;0.50;;;;;;;10.29;69.67;99406.16;5070241;28;20195;-60
2022/09/25 04:02:46;;;;;;;0.57;0.50;;;;;;;10.27;69.99;99406.28;5069950;28;20226;-60
2022/09/25 04:05:13;;;;;;;0.47;0.47;;;;;;;10.30;69.58;99407.81;5069978;28;20213;-60
2022/09/25 04:07:40;;;;;;;0.47;0.47;;;;;;;10.28;70.21;99399.44;5069954;28;20211;-60
2022/09/25 04:10:09;;;;;;;1.80;0.80;;;;;;;10.19;70.11;99396.53;5069782;28;20205;-60
2022/09/25 04:12:36;;;;;;;0.80;0.40;;;;;;;10.22;69.98;99397.25;5069713;28;20222;-60
2022/09/25 04:15:03;;;;;;;0.70;0.70;;;;;;;10.20;70.26;99402.44;5069972;28;20264;-60
2022/09/25 04:17:29;;;;;;;0.30;0.30;;;;;;;10.20;70.14;99395.59;5069467;28;20223;-60
2022/09/25 04:19:56;;;;;;;0.50;0.50;;;;;;;10.24;70.20;99397.94;5069589;28;20195;-60
2022/09/25 04:22:23;;;;;;;0.70;0.37;;;;;;;10.29;70.14;99394.19;5069518;28;20241;-60
2022/09/25 04:24:50;;;;;;;0.57;0.57;;;;;;;10.25;70.04;99386.81;5069732;28;20199;-60
2022/09/25 04:27:21;;;;;;;0.20;0.20;;;;;;;10.20;70.71;99395.59;5069341;28;20194;-60
2022/09/25 04:29:48;;;;;;;0.30;0.30;;;;;;;10.09;71.05;99403.13;5069943;28;20205;-60
2022/09/25 04:35:00;;;;;;;0.47;0.47;;;;;;;10.18;71.78;99394.88;5069738;28;20697;-60
2022/09/25 04:37:27;;;;;;;1.07;0.60;;;;;;;10.26;70.94;99385.88;5069227;28;20225;-60
2022/09/25 04:39:54;;;;;;;0.40;0.40;;;;;;;10.16;71.43;99378.84;5069493;28;20698;-60
2022/09/25 04:42:24;;;;;;;0.40;0.40;;;;;;;10.25;71.71;99387.63;5069184;28;20613;-60
2022/09/25 04:44:52;;;;;;;0.43;0.43;;;;;;;10.34;71.81;99393.91;5069389;28;20787;-60
2022/09/25 04:47:20;;;;;;;0.30;0.30;;;;;;;10.54;71.15;99388.28;5069232;28;20284;-60
2022/09/25 04:49:47;;;;;;;1.47;0.53;;;;;;;10.63;70.71;99387.66;5069296;28;20199;-60
2022/09/25 04:52:16;;;;;;;0.20;0.20;;;;;;;10.70;70.67;99389.78;5069062;28;20214;-60
2022/09/25 04:54:43;;;;;;;0.20;0.20;;;;;;;10.74;70.89;99386.13;5069363;28;20206;-60
2022/09/25 04:57:14;;;;;;;0.43;0.43;;;;;;;10.83;71.09;99395.72;5069371;28;20210;-60
2022/09/25 04:59:42;;;;;;;0.23;0.23;;;;;;;10.96;71.34;99391.38;5069555;28;20195;-60
2022/09/25 05:02:09;;;;;;;1.17;0.80;;;;;;;11.04;70.76;99393.41;5069060;28;20647;-60
2022/09/25 05:04:36;;;;;;;0.60;0.60;;;;;;;11.15;71.65;99397.81;5069252;28;20241;-60
2022/09/25 05:07:03;;;;;;;0.43;0.43;;;;;;;11.28;71.51;99390.88;5068983;28;20203;-60
2022/09/25 05:09:30;;;;;;;2.13;0.80;;;;;;;11.42;70.24;99395.03;5069181;28;20599;-60
2022/09/25 05:11:57;;;;;;;0.87;0.63;;;;;;;11.51;70.59;99396.94;5069297;28;20202;-60
2022/09/25 05:14:24;;;;;;;0.80;0.70;;;;;;;11.65;70.27;99393.41;5069014;28;20699;-60
2022/09/25 05:16:53;;;;;;;0.90;0.80;;;;;;;11.86;69.30;99397.00;5069145;28;20202;-60
2022/09/25 05:19:19;;;;;;;0.70;0.57;;;;;;;12.09;69.47;99397.06;5068857;28;20643;-60
2022/09/25 05:21:46;;;;;;;0.60;0.50;;;;;;;12.39;67.52;99405.06;5069079;28;20209;-60
2022/09/25 05:24:13;;;;;;;0.50;0.50;;;;;;;12.59;65.67;99405.31;5068856;28;20242;-60
2022/09/25 05:26:41;;;;;;;0.57;0.57;;;;;;;12.70;65.75;99407.88;5068847;28;20195;-60
2022/09/25 05:29:08;;;;;;;0.90;0.47;;;;;;;13.07;65.29;99407.63;5068779;28;20222;-60
2022/09/25 05:31:35;;;;;;;0.63;0.63;;;;;;;13.45;66.83;99403.84;5068687;28;20309;-61
2022/09/25 05:34:03;;;;;;;1.00;0.90;;;;;;;13.82;63.05;99402.53;5068840;28;20225;-61
2022/09/25 05:36:30;;;;;;;0.87;0.80;;;;;;;14.22;61.74;99404.44;5068680;28;20213;-60
2022/09/25 05:38:59;;;;;;;1.53;0.87;;;;;;;14.54;61.55;99393.25;5068770;28;20590;-61
2022/09/25 05:41:26;;;;;;;0.93;0.73;;;;;;;14.81;60.40;99404.75;5068575;28;20197;-62
2022/09/25 05:43:54;;;;;;;1.07;0.83;;;;;;;14.90;60.54;99399.63;5071372;28;20705;-61
2022/09/25 05:46:20;;;;;;;0.90;0.73;;;;;;;14.86;59.89;99402.59;5072299;28;20199;-61
2022/09/25 05:48:47;;;;;;;0.73;0.73;;;;;;;14.82;58.66;99406.38;5072755;28;20221;-61
2022/09/25 05:51:15;;;;;;;1.27;0.90;;;;;;;14.88;57.28;99406.66;5072363;28;20209;-61
2022/09/25 05:53:42;;;;;;;1.93;1.20;;;;;;;14.49;56.17;99403.09;5072424;28;20233;-61
2022/09/25 05:56:09;;;;;;;0.97;0.93;;;;;;;14.42;57.81;99399.41;5072261;28;20205;-61
2022/09/25 05:58:36;;;;;;;1.20;0.80;;;;;;;14.63;59.20;99402.78;5072503;28;20231;-61
2022/09/25 06:01:05;;;;;;;1.10;1.00;;;;;;;14.99;60.54;99407.53;5072112;28;20256;-61
2022/09/25 06:03:32;;;;;;;1.17;0.80;;;;;;;15.24;60.40;99406.22;5072062;28;20702;-61
2022/09/25 06:05:59;;;;;;;0.90;0.90;;;;;;;15.40;58.53;99411.69;5072000;28;20198;-61
2022/09/25 06:08:29;;;;;;;0.83;0.83;;;;;;;15.40;57.04;99416.81;5071909;28;20229;-61
2022/09/25 06:10:57;;;;;;;1.60;1.07;;;;;;;15.45;58.09;99414.66;5072125;28;20667;-61
2022/09/25 06:13:25;;;;;;;0.87;0.87;;;;;;;15.53;58.17;99419.13;5072164;28;20230;-61
2022/09/25 06:15:52;;;;;;;2.03;1.40;;;;;;;15.45;58.04;99419.81;5072044;28;20725;-62
2022/09/25 06:18:20;;;;;;;1.10;1.00;;;;;;;15.73;58.14;99418.22;5071586;28;20219;-61
2022/09/25 06:20:48;;;;;;;0.87;0.87;;;;;;;15.96;58.54;99413.59;5071798;28;20199;-61
2022/09/25 06:23:16;;;;;;;1.23;1.13;;;;;;;16.33;61.06;99415.47;5071564;28;20622;-61
2022/09/25 06:25:45;;;;;;;1.50;0.87;;;;;;;16.65;58.42;99420.25;5071765;28;20203;-61
2022/09/25 06:28:12;;;;;;;0.77;0.70;;;;;;;17.05;55.02;99420.94;5071597;28;20230;-61
2022/09/25 06:30:39;;;;;;;1.60;1.20;;;;;;;17.45;54.11;99417.16;5071613;28;20206;-61
2022/09/25 06:33:08;;;;;;;1.00;1.00;;;;;;;17.86;53.63;99426.94;5071279;28;20710;-61
2022/09/25 06:35:36;;;;;;;1.43;0.90;;;;;;;18.11;52.05;99424.53;5071547;28;20206;-61
2022/09/25 06:38:04;;;;;;;1.23;1.13;;;;;;;18.18;52.26;99430.75;5071572;28;20229;-61
2022/09/25 06:40:31;;;;;;;0.70;0.70;;;;;;;18.44;52.16;99438.53;5071532;28;20206;-61
2022/09/25 06:43:01;;;;;;;1.07;0.93;;;;;;;18.87;53.31;99430.81;5071630;28;20317;-61
2022/09/25 06:45:31;;;;;;;0.77;0.77;;;;;;;19.28;48.80;99434.34;5071348;28;20251;-61
2022/09/25 06:48:01;;;;;;;1.03;0.87;;;;;;;19.57;49.43;99441.69;5071302;28;20222;-61
2022/09/25 06:50:31;;;;;;;1.77;0.90;;;;;;;19.93;47.56;99444.06;5071294;28;20221;-61
2022/09/25 06:52:59;;;;;;;1.20;1.07;;;;;;;20.31;49.39;99433.97;5070905;28;20233;-61
2022/09/25 06:55:26;;;;;;;0.90;0.80;;;;;;;20.46;45.81;99450.47;5070551;28;20252;-62
2022/09/25 06:57:53;;;;;;;0.87;0.80;;;;;;;20.52;45.84;99439.47;5070807;28;20230;-61
2022/09/25 07:00:21;;;;;;;1.43;1.10;;;;;;;20.60;45.72;99435.22;5071136;28;20223;-62
2022/09/25 07:05:33;;;;;;;2.30;0.87;;;;;;;20.69;46.76;99424.63;5070960;28;20226;-62
2022/09/25 07:08:00;;;;;;;1.13;1.00;;;;;;;20.93;46.05;99426.31;5071100;28;20219;-62
2022/09/25 07:10:27;;;;;;;2.23;1.20;;;;;;;21.22;45.81;99427.50;5070897;28;20202;-62
2022/09/25 07:12:54;;;;;;;1.57;1.07;;;;;;;21.44;44.83;99429.34;5070778;28;20231;-62
2022/09/25 07:15:22;;;;;;;1.10;1.00;;;;;;;21.35;42.34;99419.94;5071106;28;20217;-62
2022/09/25 07:17:49;;;;;;;2.10;1.57;;;;;;;20.91;43.71;99417.88;5070879;28;20225;-62
2022/09/25 07:20:16;;;;;;;1.90;1.33;;;;;;;20.88;43.98;99420.81;5070739;28;20205;-62
2022/09/25 07:22:43;;;;;;;1.30;1.20;;;;;;;21.19;48.16;99425.22;5070629;28;20229;-62
2022/09/25 07:25:11;;;;;;;1.00;0.90;;;;;;;21.77;45.15;99423.91;5070448;28;20238;-62
2022/09/25 07:27:38;;;;;;;1.43;1.07;;;;;;;22.11;42.79;99420.03;5070327;28;20233;-62
2022/09/25 07:30:06;;;;;;;2.80;1.50;;;;;;;22.44;46.65;99428.38;5070419;28;20208;-63
2022/09/25 07:32:35;;;;;;;1.27;1.10;;;;;;;22.69;42.46;99428.91;5070009;28;20225;-62
2022/09/25 07:35:01;;;;;;;1.97;1.30;;;;;;;22.83;42.87;99430.69;5070436;28;20688;-62
2022/09/25 07:37:30;;;;;;;1.50;1.17;;;;;;;22.88;41.07;99434.56;5070397;28;20275;-63
2022/09/25 07:39:57;;;;;;;1.57;1.30;;;;;;;22.46;43.58;99436.00;5070608;28;20214;-63
2022/09/25 07:42:24;;;;;;;1.20;1.10;;;;;;;22.48;41.53;99434.81;5070146;28;20226;-62
2022/09/25 07:44:50;;;;;;;2.17;1.60;;;;;;;22.36;41.23;99434.47;5070219;28;20722;-63
2022/09/25 07:47:18;;;;;;;1.93;1.50;;;;;;;22.67;42.53;99433.50;5070169;28;20195;-62
2022/09/25 07:49:46;;;;;;;2.07;1.30;;;;;;;22.91;42.10;99431.56;5070366;28;20209;-62
2022/09/25 07:52:13;;;;;;;1.73;1.40;;;;;;;23.32;41.73;99428.47;5069813;28;20667;-63
2022/09/25 07:54:41;;;;;;;1.90;1.35;;;;;;;23.67;40.72;99424.97;5070232;28;20260;-63
2022/09/25 07:57:08;;;;;;;1.05;0.98;;;;;;;24.03;39.08;99428.50;5069979;28;20198;-63
2022/09/25 07:59:35;;;;;;;1.15;1.05;;;;;;;24.27;38.60;99427.28;5070128;28;20214;-63
2022/09/25 08:02:02;;;;;;;1.20;1.10;;;;;;;24.51;37.91;99419.00;5069856;28;20210;-63
2022/09/25 08:04:29;;;;;;;1.88;1.05;;;;;;;24.74;36.91;99415.31;5069227;28;20272;-56
2022/09/25 08:06:59;;;;;;;1.35;1.25;;;;;;;24.93;39.08;99406.75;5068539;28;20199;-56
2022/09/25 08:09:26;;;;;;;2.17;1.23;;;;;;;25.00;41.41;99412.78;5069732;28;20199;-56
2022/09/25 08:11:53;;;;;;;1.40;1.27;;;;;;;25.15;39.02;99414.47;5069552;28;20230;-56
2022/09/25 08:14:21;;;;;;;1.30;1.20;;;;;;;25.42;38.95;99416.13;5069575;28;20223;-56
2022/09/25 08:16:48;;;;;;;1.27;1.17;;;;;;;25.36;38.58;99406.47;5069809;28;20199;-56
2022/09/25 08:19:17;;;;;;;1.55;1.15;;;;;;;25.32;39.18;99410.50;5069601;28;20241;-56
2022/09/25 08:21:44;;;;;;;1.13;1.02;;;;;;;25.41;38.14;99404.06;5069448;28;20260;-56
2022/09/25 08:24:12;;;;;;;1.30;1.20;;;;;;;25.32;39.52;99407.88;5069278;28;20237;-56
2022/09/25 08:26:39;;;;;;;1.42;1.10;;;;;;;25.32;38.23;99399.22;5069329;28;20194;-56
2022/09/25 08:29:07;;;;;;;1.10;1.00;;;;;;;25.41;37.71;99392.78;5069314;28;20219;-56
2022/09/25 08:31:34;;;;;;;1.20;1.00;;;;;;;25.56;37.51;99389.97;5069247;28;20203;-56
2022/09/25 08:34:01;;;;;;;1.38;1.05;;;;;;;25.41;37.04;99393.59;5068362;28;20218;-56
2022/09/25 08:36:28;;;;;;;1.52;1.20;;;;;;;25.50;38.27;99402.84;5069040;28;20218;-57
2022/09/25 08:38:58;;;;;;;1.10;1.00;;;;;;;25.61;37.26;99398.84;5069774;28;20226;-56
2022/09/25 08:41:30;;;;;;;1.73;1.40;;;;;;;25.09;39.05;99405.56;5068755;28;20486;-56
2022/09/25 08:44:03;;;;;;;1.60;1.35;;;;;;;25.27;38.97;99408.47;5069076;28;20225;-56
2022/09/25 08:49:27;;;;;;;2.22;1.40;;;;;;;25.15;36.58;99393.53;5069352;28;20206;-56
2022/09/25 08:51:58;;;;;;;1.40;1.17;;;;;;;25.13;39.14;99385.03;5069234;28;20202;-56
2022/09/25 08:54:27;;;;;;;1.02;0.90;;;;;;;24.97;37.94;99376.56;5068886;28;20198;-56
2022/09/25 08:56:58;;;;;;;1.13;1.05;;;;;;;25.25;38.90;99391.38;5068733;28;20202;-57
2022/09/25 08:59:29;;;;;;;1.15;0.95;;;;;;;25.37;41.08;99388.97;5069115;28;20690;-56
2022/09/25 09:02:00;;;;;;;1.48;1.35;;;;;;;25.23;38.10;99386.31;5069189;28;20591;-56
2022/09/25 09:04:30;;;;;;;1.95;1.40;;;;;;;25.23;39.35;99390.75;5068935;28;20725;-57
2022/09/25 09:07:03;;;;;;;1.58;1.30;;;;;;;25.04;38.65;99384.41;5069339;28;20712;-63
2022/09/25 09:09:37;;;;;;;1.40;1.30;;;;;;;25.17;37.29;99371.41;5069520;28;20210;-56
2022/09/25 09:12:10;;;;;;;1.55;1.30;;;;;;;24.81;38.06;99364.66;5069028;28;20207;-57
2022/09/25 09:14:43;;;;;;;1.50;1.35;;;;;;;24.57;38.87;99365.16;5069040;28;20206;-56
2022/09/25 09:17:17;;;;;;;1.52;1.20;;;;;;;24.57;37.78;99368.56;5068773;28;20580;-56
2022/09/25 09:19:47;;;;;;;1.75;1.20;;;;;;;24.81;37.76;99369.06;5072407;28;20198;-56
2022/09/25 09:22:20;;;;;;;1.05;0.95;;;;;;;24.97;40.11;99371.31;5071982;28;20210;-56
2022/09/25 09:24:55;;;;;;;1.52;1.33;;;;;;;25.11;38.42;99359.09;5072745;28;20714;-57
2022/09/25 09:27:39;;;;;;;1.33;1.20;;;;;;;25.49;36.73;99361.97;5072548;28;20222;-57
2022/09/25 09:30:16;;;;;;;1.45;1.15;;;;;;;25.53;37.11;99365.78;5072616;28;20209;-56
2022/09/25 09:33:11;;;;;;;1.23;1.10;;;;;;;25.38;36.59;99356.53;5072205;28;20218;-57
2022/09/25 09:35:47;;;;;;;1.30;1.20;;;;;;;25.75;35.91;99357.75;5072549;28;20198;-57
2022/09/25 09:38:25;;;;;;;1.52;1.05;;;;;;;25.90;35.58;99355.75;5072285;28;20230;-57
2022/09/25 09:41:08;;;;;;;0.95;0.90;;;;;;;25.94;34.39;99354.31;5072494;28;20678;-56
2022/09/25 09:43:49;;;;;;;1.13;1.05;;;;;;;26.19;35.42;99358.94;5071665;28;20297;-57
2022/09/25 09:46:27;;;;;;;1.27;1.00;;;;;;;26.32;33.70;99358.88;5071622;28;20327;-56
2022/09/25 09:49:04;;;;;;;1.20;1.10;;;;;;;26.31;34.41;99356.47;5072456;28;20222;-59
2022/09/25 09:51:36;;;;;;;1.10;1.00;;;;;;;26.45;34.22;99358.03;5072064;28;20195;-59
2022/09/25 09:54:10;;;;;;;1.25;1.13;;;;;;;26.20;34.35;99356.09;5072409;28;20229;-59
2022/09/25 09:56:37;;;;;;;1.15;1.00;;;;;;;26.33;35.60;99349.22;5071497;28;20199;-59
2022/09/25 09:59:13;;;;;;;2.22;1.50;;;;;;;26.28;35.02;99341.16;5072220;28;20219;-59
2022/09/25 10:01:41;;;;;;;1.63;1.40;;;;;;;26.50;34.89;99344.31;5072060;28;20198;-61
2022/09/25 10:04:11;;;;;;;1.23;1.13;;;;;;;26.58;34.42;99334.41;5072031;28;20215;-60
2022/09/25 10:06:42;;;;;;;1.08;0.98;;;;;;;26.58;33.27;99342.25;5071776;28;20687;-60
2022/09/25 10:09:14;;;;;;;1.70;1.23;;;;;;;26.28;33.38;99336.72;5071876;28;20225;-60
2022/09/25 10:11:41;;;;;;;2.22;1.45;;;;;;;26.24;33.66;99321.59;5071758;28;20191;-59
2022/09/25 10:14:17;;;;;;;1.20;1.10;;;;;;;26.18;34.11;99334.53;5072010;28;20211;-59
2022/09/25 10:16:44;;;;;;;1.00;0.90;;;;;;;26.27;33.62;99329.03;5071837;28;20226;-60
2022/09/25 10:19:18;;;;;;;1.42;1.33;;;;;;;26.44;36.11;99319.69;5071752;28;20219;-59
2022/09/25 10:21:50;;;;;;;1.80;1.15;;;;;;;26.50;35.22;99324.16;5071858;28;20286;-59
2022/09/25 10:24:57;;;;;;;3.13;2.13;;;;;;;26.79;33.33;99322.81;5071294;28;20223;-59
2022/09/25 10:27:29;;;;;;;4.95;2.78;;;;;;;27.00;32.50;99326.13;5056950;28;20219;-59
2022/09/25 10:30:19;;;;;;;2.40;1.40;;;;;;;27.05;34.37;99328.91;5070315;28;20211;-59
2022/09/25 10:32:57;;;;;;;1.30;1.10;;;;;;;26.92;33.16;99321.13;5071445;28;20222;-59
2022/09/25 10:35:28;;;;;;;1.02;1.00;;;;;;;26.87;32.94;99313.88;5071031;28;20626;-59
2022/09/25 10:37:57;;;;;;;1.00;0.85;;;;;;;26.94;32.88;99311.22;5071422;28;20258;-58
2022/09/25 10:40:27;;;;;;;1.30;1.00;;;;;;;27.05;32.52;99300.84;5071689;28;20199;-62
2022/09/25 10:43:16;;;;;;;1.52;1.13;;;;;;;27.02;32.15;99290.78;5071385;28;20265;-62
2022/09/25 10:45:44;;;;;;;1.38;1.15;;;;;;;27.02;32.88;99285.53;5071764;28;20239;-62
2022/09/25 10:51:17;;;;;;;1.13;1.02;;;;;;;26.62;34.35;99284.97;5071970;28;20641;-62
2022/09/25 10:53:44;;;;;;;1.00;0.90;;;;;;;26.45;32.51;99273.34;5070953;28;20229;-62
2022/09/25 10:56:16;;;;;;;0.93;0.90;;;;;;;26.45;32.54;99276.75;5071027;28;20214;-62
2022/09/25 10:58:47;;;;;;;0.80;0.80;;;;;;;26.70;35.05;99276.84;5071181;28;20223;-62
2022/09/25 11:01:16;;;;;;;1.58;1.10;;;;;;;26.86;33.93;99257.97;5071165;28;20203;-61
2022/09/25 11:03:53;;;;;;;1.17;1.08;;;;;;;27.02;33.14;99268.97;5070742;28;20284;-61
2022/09/25 11:06:24;;;;;;;1.45;1.35;;;;;;;26.96;32.43;99264.56;5070838;28;20238;-61
2022/09/25 11:09:03;;;;;;;1.10;1.02;;;;;;;27.00;33.78;99265.75;5070633;28;20257;-61
2022/09/25 11:11:30;;;;;;;1.02;1.00;;;;;;;26.91;34.54;99267.84;5070558;28;20228;-62
2022/09/25 11:14:02;;;;;;;1.13;1.02;;;;;;;26.75;32.03;99263.91;5070637;28;20752;-60
2022/09/25 11:16:45;;;;;;;1.08;0.98;;;;;;;26.78;32.89;99257.44;5070425;28;20586;-60
2022/09/25 11:19:14;;;;;;;1.10;1.00;;;;;;;26.81;33.44;99263.03;5070335;28;20210;-61
2022/09/25 11:21:49;;;;;;;1.55;0.90;;;;;;;26.91;33.44;99253.91;5070233;28;20206;-61
2022/09/25 11:24:24;;;;;;;1.10;1.00;;;;;;;26.82;33.67;99259.44;5070581;28;20250;-62
2022/09/25 11:26:59;;;;;;;1.02;0.93;;;;;;;26.83;31.58;99254.97;5070179;28;20744;-60
2022/09/25 11:29:35;;;;;;;1.67;1.05;;;;;;;26.64;30.96;99261.94;5070181;28;20720;-60
2022/09/25 11:32:11;;;;;;;1.27;1.10;;;;;;;26.86;34.43;99255.34;5070006;28;20214;-60
2022/09/25 11:35:00;;;;;;;1.65;1.20;;;;;;;27.02;32.57;99259.28;5070179;28;20202;-59
2022/09/25 11:37:34;;;;;;;1.10;0.98;;;;;;;26.96;32.83;99259.31;5068952;28;20611;-60
2022/09/25 11:43:06;;;;;;;1.15;0.98;;;;;;;27.16;31.42;99260.00;5068878;28;20713;-60
2022/09/25 11:45:39;;;;;;;2.10;1.17;;;;;;;26.94;31.97;99250.88;5069967;28;20234;-59
2022/09/25 11:48:22;;;;;;;1.02;0.90;;;;;;;26.53;30.38;99249.50;5070264;28;20709;-60
2022/09/25 11:51:00;;;;;;;1.17;1.08;;;;;;;26.83;32.37;99244.47;5070131;28;20202;-60
2022/09/25 11:53:36;;;;;;;1.08;0.98;;;;;;;26.90;33.02;99242.59;5069752;28;20231;-60
2022/09/25 11:56:24;;;;;;;2.13;1.52;;;;;;;26.94;31.94;99241.19;5069833;28;20603;-59
2022/09/25 11:59:14;;;;;;;0.80;0.80;;;;;;;26.86;32.49;99238.81;5069667;28;20227;-59
2022/09/25 12:01:46;;;;;;;1.42;1.10;;;;;;;26.74;31.85;99235.28;5069731;28;20202;-60
2022/09/25 12:04:39;;;;;;;1.17;0.93;;;;;;;26.58;31.34;99236.56;5070079;28;20230;-62
2022/09/25 12:07:21;;;;;;;2.28;0.80;;;;;;;26.52;31.02;99234.78;5069637;28;20230;-63
2022/09/25 12:10:03;;;;;;;1.55;1.30;;;;;;;26.35;32.47;99232.63;5069793;28;20203;-59
2022/09/25 12:12:38;;;;;;;1.05;0.70;;;;;;;26.17;31.85;99229.91;5069696;28;21034;-61
2022/09/25 12:15:16;;;;;;;1.08;0.98;;;;;;;26.34;32.40;99220.53;5069377;28;20206;-62